CYNL

METAR CYNL 242300Z AUTO ///// 9SM CLR M12/M17 A2953 RMK AO1 SLP050
METAR
LOCATION
CYNL
DATE - TIME
242300Z
WIND
VISIBILITY
9SM
RUNWAY VISUAL RANGE
NOT REPORTED
WEATHER
CLOUDINESS
CLR
TEMP / DEWPOINT
-12 ºC / -17 ºC
ALTIMETER
29.53 in. Hg
RECENT WEATHER
NOT REPORTED
WIND SHEAR
NOT REPORTED
REMARKS
RMK AO1 SLP050
SEA LEVEL PRESSURE: hPa

CYNL

METAR CYNL 242200Z AUTO 29004KT 9SM CLR M11/M16 A2952 RMK AO1 SLP047
METAR
LOCATION
CYNL
DATE - TIME
242200Z
WIND
290 TRUE @ 4 KNOTS
VISIBILITY
9SM
RUNWAY VISUAL RANGE
NOT REPORTED
WEATHER
CLOUDINESS
CLR
TEMP / DEWPOINT
-11 ºC / -16 ºC
ALTIMETER
29.52 in. Hg
RECENT WEATHER
NOT REPORTED
WIND SHEAR
NOT REPORTED
REMARKS
RMK AO1 SLP047
SEA LEVEL PRESSURE: hPa

CYNL

METAR CYNL 242100Z AUTO 29010KT 9SM CLR M11/M15 A2951 RMK AO1 SLP049
METAR
LOCATION
CYNL
DATE - TIME
242100Z
WIND
290 TRUE @ 10 KNOTS
VISIBILITY
9SM
RUNWAY VISUAL RANGE
NOT REPORTED
WEATHER
CLOUDINESS
CLR
TEMP / DEWPOINT
-11 ºC / -15 ºC
ALTIMETER
29.51 in. Hg
RECENT WEATHER
NOT REPORTED
WIND SHEAR
NOT REPORTED
REMARKS
RMK AO1 SLP049
SEA LEVEL PRESSURE: hPa

Your time UTC time
 
 
Weather data provided by AXYS Technologies Inc., www.axystechnologies.com
 
Station History